Home > Products > Valid Products > TAF

000
FTUS41 KGYX 231400 AAA
TAFPSM
TAF AMD
KPSM 231415Z 2314/2412 30012G20KT P6SM SCT030 OVC080
     FM231500 32015G25KT 5SM -SHRA BKN030 OVC050
     FM240000 31015KT P6SM OVC050=



000
FTUS41 KGYX 231400 AAA
TAFLEB
TAF AMD
KLEB 231413Z 2314/2412 34010G18KT P6SM BKN020 OVC030
     FM231800 32014G22KT 5SM -SHRA BKN030 OVC050
     FM240000 32014G22KT P6SM VCSH BKN050 BKN080=



000
FTUS41 KGYX 231300 AAB
TAFAUG
TAF AMD
KAUG 231312Z 2313/2412 VRB04KT P6SM VCSH SCT025 BKN035 OVC050
     FM231700 35012G22KT P6SM VCSH BKN040 OVC060=



000
FTUS41 KGYX 231200 AAA
TAFAUG
TAF AMD
KAUG 231258Z 2313/2412 VRB04KT 3SM BR BKN004
     FM231430 33008KT P6SM VCSH SCT025 BKN035 OVC050
     FM231700 35012G22KT P6SM VCSH BKN040 OVC060=



000
FTUS41 KGYX 231100
TAFPSM
TAF
KPSM 231120Z 2312/2412 24005KT 6SM BR BKN100
     FM231300 33010KT P6SM SCT050 BKN080
     FM231800 32015G25KT P6SM VCSH SCT060 BKN080
     FM240000 31015KT P6SM OVC050=



000
FTUS41 KGYX 231100
TAFCON
TAF
KCON 231120Z 2312/2412 VRB03KT 3SM BR SCT030 OVC080
     FM231400 32012KT P6SM VCSH SCT030 BKN045 OVC070
     FM231800 32018G28KT P6SM VCSH BKN050 BKN080
     FM240300 31015G21KT P6SM BKN050=



000
FTUS41 KGYX 231100
TAFAUG
TAF
KAUG 231120Z 2312/2412 VRB04KT 1/4SM FG VV002
     FM231330 33008KT P6SM VCSH SCT025 BKN035 OVC050
     FM231700 35012G22KT P6SM VCSH BKN040 OVC060=



000
FTUS41 KGYX 231100
TAFPWM
TAF
KPWM 231120Z 2312/2412 VRB03KT 1/4SM FG VV001
     FM231300 33008KT P6SM VCSH BKN035 OVC050
     FM231800 34016G26KT P6SM VCSH BKN045 OVC060
     FM240000 33013KT P6SM OVC050=



000
FTUS41 KGYX 231100
TAFLEB
TAF
KLEB 231120Z 2312/2412 34006KT P6SM BKN025 OVC060
     FM231400 32008KT P6SM SCT030 OVC050
     FM231800 32014G22KT P6SM VCSH BKN050 BKN080=



000
FTUS41 KGYX 231100 AAH
TAFCON
TAF AMD
KCON 231102Z 2311/2406 00000KT 2SM BR OVC080
     FM231400 32012KT P6SM SCT030 BKN045 OVC070
     FM231800 32018G28KT P6SM VCSH BKN050 BKN080
     FM240300 31015G21KT P6SM BKN050=



000
FTUS41 KGYX 231000 AAD
TAFPWM
TAF AMD
KPWM 231040Z 2311/2406 VRB03KT 1/4SM FG OVC001
     FM231300 33008KT P6SM BKN035 OVC050
     FM231800 34016G26KT P6SM VCSH BKN045 OVC060
     FM240000 33013KT P6SM OVC050=



000
FTUS41 KGYX 231000 AAG
TAFCON
TAF AMD
KCON 231039Z 2311/2406 00000KT 1SM BR OVC080
     FM231400 32012KT P6SM SCT030 BKN045 OVC070
     FM231800 32018G28KT P6SM VCSH BKN050 BKN080
     FM240300 31015G21KT P6SM BKN050=



000
FTUS41 KGYX 231000 AAC
TAFAUG
TAF AMD
KAUG 231005Z 2310/2406 VRB04KT 1/4SM FG VV002
     FM231300 33008KT P6SM SCT025 BKN035 OVC050
     FM231700 35012G22KT P6SM VCSH BKN040 OVC060=



000
FTUS41 KGYX 230900 AAF
TAFCON
TAF AMD
KCON 230937Z 2310/2406 00000KT 2SM BR VV002
     FM231400 32012KT P6SM SCT030 BKN045 OVC070
     FM231800 32018G28KT P6SM VCSH BKN050 BKN080
     FM240300 31015G21KT P6SM BKN050=



000
FTUS41 KGYX 230900 AAE
TAFCON
TAF AMD
KCON 230932Z 2310/2406 00000KT 1SM BR VV002
     FM231400 32012KT P6SM SCT030 BKN045 OVC070
     FM231800 32018G28KT P6SM VCSH BKN050 BKN080
     FM240300 31015G21KT P6SM BKN050=



000
FTUS41 KGYX 230900 AAC
TAFPWM
TAF AMD
KPWM 230931Z 2310/2406 VRB03KT 1/4SM FG OVC002
     FM231300 33008KT P6SM BKN035 OVC050
     FM231800 34016G26KT P6SM VCSH BKN045 OVC060
     FM240000 33013KT P6SM OVC050=



000
FTUS41 KGYX 230900 AAB
TAFPWM
TAF AMD
KPWM 230911Z 2309/2406 VRB03KT 1SM BR OVC003
     FM231300 33008KT P6SM BKN035 OVC050
     FM231800 34016G26KT P6SM VCSH BKN045 OVC060
     FM240000 33013KT P6SM OVC050=



000
FTUS41 KGYX 230900 AAD
TAFCON
TAF AMD
KCON 230911Z 2309/2406 00000KT 1/4SM FG VV002
     FM231400 32012KT P6SM SCT030 BKN045 OVC070
     FM231800 32018G28KT P6SM VCSH BKN050 BKN080
     FM240300 31015G21KT P6SM BKN050=



000
FTUS41 KGYX 230900 AAA
TAFLEB
TAF AMD
KLEB 230911Z 2309/2406 VRB03KT P6SM BKN025 OVC060
     FM231400 32008KT P6SM SCT030 OVC050
     FM231800 32014G22KT P6SM VCSH BKN050 BKN080=



000
FTUS41 KGYX 230900 AAA
TAFPSM
TAF AMD
KPSM 230911Z 2309/2406 27005KT 6SM BR BKN100
     FM231400 33010KT P6SM SCT050 BKN080
     FM231800 32015G25KT P6SM VCSH SCT060 BKN080
     FM240000 31015KT P6SM OVC050=



000
FTUS41 KGYX 230900 AAB
TAFAUG
TAF AMD
KAUG 230911Z 2309/2406 VRB04KT 5SM BR OVC003
     FM231300 33008KT P6SM SCT025 BKN035 OVC050
     FM231700 35012G22KT P6SM VCSH BKN040 OVC060=



000
FTUS41 KGYX 230700 AAC
TAFCON
TAF AMD
KCON 230716Z 2307/2406 00000KT 3/4SM BR SCT002
      TEMPO 2307/2310 1/4SM FG VV002
     FM231400 32012KT P6SM SCT030 BKN045 OVC070
     FM231800 32018G28KT P6SM VCSH BKN050 BKN080
     FM240300 31015G21KT P6SM BKN050=



000
FTUS41 KGYX 230600 AAA
TAFPWM
TAF AMD
KPWM 230641Z 2307/2406 VRB03KT 5SM BR BKN005
     FM231300 33008KT P6SM BKN035 OVC050
     FM231800 34016G26KT P6SM VCSH BKN045 OVC060
     FM240000 33013KT P6SM OVC050=



000
FTUS41 KGYX 230600 AAB
TAFCON
TAF AMD
KCON 230632Z 2307/2406 00000KT 1SM BR BKN002
      TEMPO 2307/2310 1/4SM FG VV002
     FM231400 32012KT P6SM SCT030 BKN045 OVC070
     FM231800 32018G28KT P6SM VCSH BKN050 BKN080
     FM240300 31015G21KT P6SM BKN050=



000
FTUS41 KGYX 230600 AAA
TAFCON
TAF AMD
KCON 230627Z 2306/2406 00000KT 1SM BR SCT100
      TEMPO 2306/2310 3/4SM BR SCT005 BKN100
     FM231400 32012KT P6SM SCT030 BKN045 OVC070
     FM231800 32018G28KT P6SM VCSH BKN050 BKN080
     FM240300 31015G21KT P6SM BKN050=



000
FTUS41 KGYX 230600 AAA
TAFAUG
TAF AMD
KAUG 230613Z 2306/2406 VRB04KT 3SM -SHRA BKN002 OVC050
     FM230800 VRB04KT 4SM BR BKN008 OVC012
     FM231300 33008KT P6SM SCT025 BKN035 OVC050
     FM231700 35012G22KT P6SM VCSH BKN040 OVC060=



000
FTUS41 KGYX 230500
TAFPWM
TAF
KPWM 230527Z 2306/2406 VRB03KT 3SM -SHRA SCT035 OVC070
     FM230900 24004KT 3SM BR SCT025 BKN050 OVC070
     FM231300 33008KT P6SM BKN035 OVC050
     FM231800 34016G26KT P6SM VCSH BKN045 OVC060
     FM240000 33013KT P6SM OVC050=



000
FTUS41 KGYX 230500
TAFAUG
TAF
KAUG 230527Z 2306/2406 VRB04KT 5SM -SHRA BKN050 OVC080
     FM230800 VRB04KT 4SM BR BKN008 OVC012
     FM231300 33008KT P6SM SCT025 BKN035 OVC050
     FM231700 35012G22KT P6SM VCSH BKN040 OVC060=



000
FTUS41 KGYX 230500
TAFLEB
TAF
KLEB 230527Z 2306/2406 VRB03KT P6SM BKN040 OVC060
     FM231400 32008KT P6SM SCT030 OVC050
     FM231800 32014G22KT P6SM VCSH BKN050 BKN080=



000
FTUS41 KGYX 230500
TAFPSM
TAF
KPSM 230527Z 2306/2406 19006KT P6SM -SHRA SCT040 OVC080
     FM230700 25005KT 6SM BR BKN040 OVC060
     FM231400 33010KT P6SM SCT050 BKN080
     FM231800 32015G25KT P6SM VCSH SCT060 BKN080
     FM240000 31015KT P6SM OVC050=



000
FTUS41 KGYX 230500
TAFCON
TAF
KCON 230527Z 2306/2406 20005KT P6SM SCT060 BKN100
     FM231400 32012KT P6SM SCT030 BKN045 OVC070
     FM231800 32018G28KT P6SM VCSH BKN050 BKN080
     FM240300 31015G21KT P6SM BKN050=



000
FTUS41 KGYX 230500 AAA
TAFAUG
TAF AMD
KAUG 230504Z 2305/2324 VRB04KT 5SM -SHRA BKN050 OVC080
     FM230700 VRB04KT 4SM BR BKN008 OVC012
     FM231300 33008KT P6SM SCT025 BKN035 OVC050
     FM231700 35012KT P6SM VCSH BKN040 OVC060=



000
FTUS41 KGYX 230500 AAB
TAFPWM
TAF AMD
KPWM 230503Z 2305/2324 16008KT 3SM -SHRA SCT035 OVC070
     FM230900 24004KT 4SM BR SCT025 BKN050 OVC070
     FM231300 33008KT P6SM BKN035 OVC050
     FM231800 34016G26KT P6SM VCSH BKN045 OVC060=



000
FTUS41 KGYX 230100 AAA
TAFLEB
TAF AMD
KLEB 230143Z 2302/2324 20005KT P6SM -SHRA SCT045 OVC060
     FM230300 22004KT P6SM SCT025 BKN040 OVC060
     FM230900 31005KT P6SM BKN025 OVC040
     FM231400 32008KT P6SM SCT030 OVC050
     FM231800 32014G22KT P6SM VCSH BKN050 BKN080=



000
FTUS41 KGYX 230100 AAA
TAFCON
TAF AMD
KCON 230142Z 2302/2324 20005KT P6SM -SHRA SCT060 OVC080
     FM230400 25005KT P6SM BKN040 OVC060
     FM231400 32012KT P6SM SCT030 BKN045 OVC070
     FM231800 32018G28KT P6SM VCSH BKN050 BKN080=



000
FTUS41 KGYX 230100 AAA
TAFPWM
TAF AMD
KPWM 230141Z 2302/2324 16008KT P6SM -SHRA SCT070 OVC100
     FM230500 20005KT P6SM SCT025 BKN060 OVC080
     FM230900 24004KT 4SM BR SCT025 BKN050 OVC070
     FM231300 33008KT P6SM BKN035 OVC050
     FM231800 34016G26KT P6SM VCSH BKN045 OVC060=



000
FTUS41 KGYX 222300 RRA
TAFPSM
TAF
KPSM 222341Z 2300/2324 14007KT P6SM -SHRA BKN070 OVC100
     FM230300 18006KT P6SM -SHRA SCT040 BKN060 OVC080
     FM230500 25005KT P6SM BKN040 OVC060
     FM231000 28005KT P6SM BKN050 OVC070
     FM231400 33010KT P6SM SCT050 BKN080
     FM231800 32015G25KT P6SM VCSH SCT060 BKN080=



000
FTUS41 KGYX 222300 RRA
TAFLEB
TAF
KLEB 222341Z 2300/2324 VRB04KT P6SM -SHRA SCT045 OVC060
     FM230300 20004KT P6SM SCT025 BKN040 OVC060
     FM230600 31005KT P6SM BKN025 OVC040
     FM231400 32008KT P6SM SCT030 OVC050
     FM231800 32014G22KT P6SM VCSH BKN050 BKN080=



000
FTUS41 KGYX 222300 RRA
TAFCON
TAF
KCON 222341Z 2300/2324 20005KT P6SM -SHRA SCT060 OVC080
     FM230400 25005KT P6SM BKN040 OVC060
     FM230700 VRB04KT P6SM BKN025 OVC040
     FM231400 32012KT P6SM SCT030 BKN045 OVC070
     FM231800 32018G28KT P6SM VCSH BKN050 BKN080=



000
FTUS41 KGYX 222300 RRA
TAFAUG
TAF
KAUG 222341Z 2300/2324 17007KT P6SM -SHRA SCT060 OVC100
     FM230400 VRB04KT P6SM -SHRA SCT040 BKN060 OVC080
     FM230700 VRB04KT 4SM BR BKN008 OVC012
     FM231300 33008KT P6SM SCT025 BKN035 OVC050
     FM231700 35012KT P6SM VCSH BKN040 OVC060=



000
FTUS41 KGYX 222300 RRA
TAFPWM
TAF
KPWM 222341Z 2300/2324 16008KT P6SM -SHRA SCT070 OVC100
     FM230400 20005KT 6SM -SHRA SCT025 BKN060 OVC080
     FM230600 24004KT 4SM BR BKN015 OVC025
     FM231300 33008KT P6SM BKN035 OVC050
     FM231800 34016G26KT P6SM VCSH BKN045 OVC060=



000
FTUS41 KGYX 222100 AAA
TAFPSM
TAF AMD
KPSM 222128Z 2221/2318 14012KT P6SM SCT070 BKN100
     FM230000 16007KT P6SM -RA BKN060 OVC080
     FM230300 18006KT 6SM -RA BR OVC035
     FM230900 29005KT P6SM OVC050
     FM231500 33010KT P6SM OVC050=



000
FTUS41 KGYX 221700
TAFLEB
TAF
KLEB 221733Z 2218/2318 22008KT P6SM OVC100
     FM222000 20005KT P6SM -RA OVC050
     FM230000 22004KT 5SM -RA OVC030
     FM230900 31005KT P6SM OVC025
     FM231400 32012G22KT P6SM OVC050=



000
FTUS41 KGYX 221700
TAFPWM
TAF
KPWM 221733Z 2218/2318 15008KT P6SM OVC100
     FM230000 16008KT P6SM -RA OVC050
     FM230200 18005KT 6SM -RA OVC030
     FM230600 28006KT 4SM BR BKN015
     FM231300 32008KT P6SM OVC050=



000
FTUS41 KGYX 221700
TAFAUG
TAF
KAUG 221733Z 2218/2318 14008KT P6SM OVC100
     FM230000 16007KT P6SM -RA OVC050
     FM230200 18004KT 6SM -RA OVC030
     FM230600 28004KT 2SM BR SCT004 OVC020
     FM231300 32008KT P6SM OVC050=



000
FTUS41 KGYX 221700
TAFPSM
TAF
KPSM 221733Z 2218/2318 12009KT P6SM OVC100
     FM230000 16007KT P6SM -RA OVC050
     FM230300 18006KT 6SM -RA BR OVC035
     FM230900 29005KT P6SM OVC050
     FM231500 33010KT P6SM OVC050=



000
FTUS41 KGYX 221700
TAFCON
TAF
KCON 221733Z 2218/2318 22008KT P6SM OVC100
     FM222100 20005KT P6SM -RA OVC050
     FM230000 22004KT 5SM -RA OVC030
     FM230900 31005KT P6SM OVC025
     FM231400 32012G22KT P6SM OVC050=



000
FTUS41 KGYX 221100
TAFCON
TAF
KCON 221120Z 2212/2312 19008KT P6SM BKN080 OVC100
     FM222200 20010KT 5SM -SHRA OVC030=



000
FTUS41 KGYX 221100
TAFAUG
TAF
KAUG 221120Z 2212/2312 17008KT P6SM VCSH BKN080
     FM230300 19008KT 5SM -SHRA SCT007 OVC030=



000
FTUS41 KGYX 221100
TAFLEB
TAF
KLEB 221120Z 2212/2312 VRB03KT P6SM SCT150 BKN200
     FM221600 19009KT P6SM SCT060 BKN080 OVC100
     FM222000 20009KT 5SM -SHRA OVC040=



000
FTUS41 KGYX 221100
TAFPWM
TAF
KPWM 221120Z 2212/2312 17009KT P6SM BKN090
     FM230200 19009KT 5SM -SHRA SCT007 OVC030=



000
FTUS41 KGYX 221100
TAFPSM
TAF
KPSM 221120Z 2212/2312 22006KT P6SM BKN120
     FM221600 17012KT P6SM SCT080 OVC100
     FM230100 18009KT 5SM -SHRA SCT007 OVC030=



000
FTUS41 KGYX 220800 AAA
TAFLEB
TAF AMD
KLEB 220832Z 2209/2306 VRB03KT P6SM SCT150 BKN200
     FM221600 19009KT P6SM SCT060 BKN080 OVC100
     FM222000 20009KT 5SM -SHRA OVC040=



000
FTUS41 KGYX 220800 AAA
TAFCON
TAF AMD
KCON 220832Z 2209/2306 VRB03KT P6SM SCT150
     FM221600 19010KT P6SM SCT060 BKN080 OVC100
     FM222200 20010KT 5SM -SHRA OVC050=



000
FTUS41 KGYX 220800 AAA
TAFPWM
TAF AMD
KPWM 220832Z 2209/2306 VRB03KT P6SM SCT150
     FM221600 17011KT P6SM SCT060 BKN090=



000
FTUS41 KGYX 220800 AAA
TAFAUG
TAF AMD
KAUG 220832Z 2209/2306 16005KT P6SM BKN080
     FM221600 18009KT P6SM SCT060 OVC080=



000
FTUS41 KGYX 220800 AAA
TAFPSM
TAF AMD
KPSM 220832Z 2209/2306 22006KT P6SM SCT120
     FM221600 17012KT P6SM SCT080 OVC100=



000
FTUS41 KGYX 220500
TAFLEB
TAF
KLEB 220520Z 2206/2306 VRB03KT P6SM SCT150 BKN200
     FM221600 19009KT P6SM SCT060 BKN080 OVC100
     FM222000 20009KT 5SM -SHRA OVC040=



000
FTUS41 KGYX 220500
TAFPWM
TAF
KPWM 220520Z 2206/2306 VRB03KT P6SM SCT150
     FM221600 17011KT P6SM SCT060 BKN090=



000
FTUS41 KGYX 220500
TAFAUG
TAF
KAUG 220520Z 2206/2306 16005KT P6SM BKN080
     FM221600 18009KT P6SM SCT060 OVC080=



000
FTUS41 KGYX 220500
TAFPSM
TAF
KPSM 220520Z 2206/2306 22006KT P6SM SCT120
     FM221600 17012KT P6SM SCT080 OVC100=



000
FTUS41 KGYX 220500
TAFCON
TAF
KCON 220520Z 2206/2306 VRB03KT P6SM SCT150
     FM221600 19010KT P6SM SCT060 BKN080 OVC100
     FM222200 20010KT 5SM -SHRA OVC050=



000
FTUS41 KGYX 212300
TAFLEB
TAF
KLEB 212320Z 2200/2224 23006KT P6SM SCT120 BKN200
     FM220200 VRB03KT P6SM SCT100 BKN200
     FM221300 19006KT P6SM SCT100 BKN200
     FM221800 20010KT P6SM SCT060 BKN080 OVC100=



000
FTUS41 KGYX 212300
TAFCON
TAF
KCON 212320Z 2200/2224 19008KT P6SM FEW120
     FM220100 VRB03KT P6SM SCT100 BKN200
     FM221400 18004KT P6SM SCT120 BKN200
     FM221800 19010KT P6SM SCT060 BKN080 OVC100=



000
FTUS41 KGYX 212300
TAFAUG
TAF
KAUG 212320Z 2200/2224 18009G18KT P6SM SCT100
     FM220100 VRB03KT P6SM SCT080 BKN100
     FM221400 14004KT P6SM BKN080 BKN150
     FM221800 18009KT P6SM SCT060 OVC080=



000
FTUS41 KGYX 212300
TAFPWM
TAF
KPWM 212320Z 2200/2224 19013G23KT P6SM FEW120
     FM220100 19006KT P6SM SCT100
     FM220600 VRB03KT P6SM BKN100
     FM221400 15006KT P6SM SCT100 BKN250
     FM221800 17012G22KT P6SM SCT060 BKN090=



000
FTUS41 KGYX 212300
TAFPSM
TAF
KPSM 212320Z 2200/2224 15010KT P6SM FEW120
     FM220100 19006KT P6SM SCT100 BKN200
     FM221400 16006KT P6SM SCT100 BKN200
     FM221800 15012KT P6SM SCT060 BKN080 OVC100=



000
FTUS41 KGYX 212200 AAA
TAFAUG
TAF AMD
KAUG 212229Z 2122/2218 18009G18KT P6SM SCT100
     FM220100 VRB03KT P6SM BKN100
     FM221500 14004KT P6SM BKN080=



000
FTUS41 KGYX 212200 AAA
TAFPWM
TAF AMD
KPWM 212229Z 2122/2218 19013G23KT P6SM FEW250
     FM220000 20006KT P6SM SCT120
     FM220600 21004KT P6SM OVC100
     FM221500 14008KT P6SM SCT100 BKN250=



000
FTUS41 KGYX 211900 AAA
TAFLEB
TAF AMD
KLEB 211943Z 2120/2218 22008G16KT P6SM SCT100 BKN250
     FM220000 17006KT P6SM BKN250
     FM220600 00000KT P6SM BKN100
     FM221500 18006KT P6SM BKN120=



000
FTUS41 KGYX 211700
TAFCON
TAF
KCON 211720Z 2118/2218 19011KT P6SM BKN250
     FM220000 VRB03KT P6SM BKN250
     FM221500 19005KT P6SM SCT100 BKN250=



000
FTUS41 KGYX 211700
TAFPSM
TAF
KPSM 211720Z 2118/2218 15012KT P6SM BKN200
     FM220000 18006KT P6SM BKN250
     FM220300 21003KT P6SM OVC250
     FM221500 16007KT P6SM BKN250=



000
FTUS41 KGYX 211700
TAFLEB
TAF
KLEB 211720Z 2118/2218 22012KT P6SM SCT100 BKN250
     FM220000 17006KT P6SM BKN250
     FM220600 00000KT P6SM BKN100
     FM221500 18006KT P6SM BKN120=



000
FTUS41 KGYX 211700
TAFPWM
TAF
KPWM 211720Z 2118/2218 19013KT P6SM BKN250
     FM220000 20006KT P6SM BKN250
     FM220600 21004KT P6SM OVC100
     FM221500 14008KT P6SM SCT100 BKN250=



000
FTUS41 KGYX 211700
TAFAUG
TAF
KAUG 211720Z 2118/2218 16008KT P6SM BKN100
     FM220100 VRB03KT P6SM BKN100
     FM221500 14004KT P6SM BKN080=



000
FTUS41 KGYX 211500 AAA
TAFPWM
TAF AMD
KPWM 211500Z 2115/2212 18013KT P6SM SCT250
     FM212300 21005KT P6SM BKN250=



000
FTUS41 KGYX 211100
TAFAUG
TAF
KAUG 211120Z 2112/2212 19004KT P6SM SCT120
     FM211500 20010G17KT P6SM SCT250
     FM212300 19005KT P6SM BKN250=



000
FTUS41 KGYX 211100
TAFLEB
TAF
KLEB 211120Z 2112/2212 18005KT P6SM SCT250
     FM211700 21010G18KT P6SM SCT250
     FM212200 21005KT P6SM BKN250=



000
FTUS41 KGYX 211100
TAFPSM
TAF
KPSM 211120Z 2112/2212 18004KT P6SM SCT250
     FM211500 17010G17KT P6SM SCT250
     FM212300 19005KT P6SM BKN250=



000
FTUS41 KGYX 211100
TAFPWM
TAF
KPWM 211120Z 2112/2212 21004KT P6SM SCT250
     FM211500 19013G20KT P6SM SCT250
     FM212300 21005KT P6SM BKN250=



000
FTUS41 KGYX 211100
TAFCON
TAF
KCON 211120Z 2112/2212 VRB03KT P6SM SCT250
     FM211500 22010KT P6SM SCT250=



000
FTUS41 KGYX 210800 AAA
TAFPSM
TAF AMD
KPSM 210840Z 2109/2206 18004KT P6SM SCT250
     FM211500 17010G17KT P6SM SCT250
     FM212300 19005KT P6SM BKN250=



000
FTUS41 KGYX 210800 AAA
TAFCON
TAF AMD
KCON 210840Z 2109/2206 VRB03KT P6SM SCT250
     FM211500 22010KT P6SM SCT250=



000
FTUS41 KGYX 210800 AAA
TAFPWM
TAF AMD
KPWM 210840Z 2109/2206 21004KT P6SM SCT250
     FM211500 19013G20KT P6SM SCT250
     FM212300 21005KT P6SM BKN250=



000
FTUS41 KGYX 210800 AAA
TAFLEB
TAF AMD
KLEB 210840Z 2109/2206 VRB03KT P6SM SCT250
     FM211700 21010G18KT P6SM SCT250
     FM212200 21005KT P6SM BKN250=



000
FTUS41 KGYX 210800 AAA
TAFAUG
TAF AMD
KAUG 210840Z 2109/2206 19004KT P6SM SCT120
     FM211500 20010G17KT P6SM SCT250
     FM212300 19005KT P6SM BKN250=



000
FTUS41 KGYX 210500
TAFLEB
TAF
KLEB 210520Z 2106/2206 VRB03KT P6SM SCT250
     FM211700 21010G18KT P6SM SCT250
     FM212200 21005KT P6SM BKN250=



000
FTUS41 KGYX 210500
TAFPSM
TAF
KPSM 210520Z 2106/2206 18004KT P6SM SCT250
     FM211500 17010G17KT P6SM SCT250
     FM212300 19005KT P6SM BKN250=



000
FTUS41 KGYX 210500
TAFAUG
TAF
KAUG 210520Z 2106/2206 19004KT P6SM SCT120
     FM211500 20010G17KT P6SM SCT250
     FM212300 19005KT P6SM BKN250=



000
FTUS41 KGYX 210500
TAFCON
TAF
KCON 210520Z 2106/2206 VRB03KT P6SM SCT250
     FM211500 22010KT P6SM SCT250=



000
FTUS41 KGYX 210500
TAFPWM
TAF
KPWM 210520Z 2106/2206 21004KT P6SM SCT250
     FM211500 19013G20KT P6SM SCT250
     FM212300 21005KT P6SM BKN250=



000
FTUS41 KGYX 202300
TAFAUG
TAF
KAUG 202326Z 2100/2124 19004KT P6SM SCT250
     FM211800 20010G17KT P6SM SCT250=



000
FTUS41 KGYX 202300
TAFCON
TAF
KCON 202326Z 2100/2124 VRB04KT P6SM SCT250
     FM211700 22008KT P6SM BKN250=



000
FTUS41 KGYX 202300
TAFLEB
TAF
KLEB 202326Z 2100/2124 VRB03KT P6SM SCT250
     FM211700 21010G18KT P6SM BKN250=



000
FTUS41 KGYX 202300
TAFPWM
TAF
KPWM 202326Z 2100/2124 21004KT P6SM SCT250
     FM211700 19013G20KT P6SM SCT250=



000
FTUS41 KGYX 202300
TAFPSM
TAF
KPSM 202326Z 2100/2124 20002KT P6SM BKN250
     FM211800 17013G23KT P6SM BKN250=



000
FTUS41 KGYX 201900 AAA
TAFPWM
TAF AMD
KPWM 201915Z 2019/2118 18012KT P6SM SCT250
     FM210100 VRB03KT P6SM BKN250
     FM211200 21005KT P6SM BKN250
     FM211500 18010KT P6SM SCT250=



000
FTUS41 KGYX 201700
TAFPWM
TAF
KPWM 201720Z 2018/2118 17010KT P6SM SCT250
     FM210100 VRB03KT P6SM BKN250
     FM211200 21005KT P6SM BKN250
     FM211500 18010KT P6SM SCT250=



000
FTUS41 KGYX 201700
TAFLEB
TAF
KLEB 201720Z 2018/2118 22006KT P6SM FEW250
     FM210000 VRB03KT P6SM SCT250
     FM211400 20006KT P6SM BKN250=



000
FTUS41 KGYX 201700
TAFCON
TAF
KCON 201720Z 2018/2118 16008KT P6SM FEW250
     FM210000 VRB03KT P6SM SCT250
     FM211400 20006KT P6SM BKN250=



000
FTUS41 KGYX 201700
TAFAUG
TAF
KAUG 201720Z 2018/2118 17005KT P6SM SCT250
     FM210200 VRB03KT P6SM BKN250
     FM211300 20008KT P6SM SCT250=



000
FTUS41 KGYX 201700
TAFPSM
TAF
KPSM 201720Z 2018/2118 12009KT P6SM FEW250
     FM210000 18005KT P6SM SCT250
     FM210400 VRB03KT P6SM BKN250
     FM211300 20008KT P6SM BKN250=



    US Dept of Commerce
    National Oceanic and Atmospheric Administration
    National Weather Service
    1325 East West Highway
    Silver Spring, MD 20910
    Page Author: NWS Internet Services Team
Disclaimer
Information Quality
Credits
Glossary
Privacy Policy
Freedom of Information Act (FOIA)
About Us
Career Opportunities